Time;durP1;ratioP1;P1;durP2;ratioP2;P2;SDS_P1;SDS_P2;PMS_P1;PMS_P2;Temp;Humidity;BMP_temperature;BMP_pressure;BME280_temperature;BME280_humidity;BME280_pressure;Samples;Min_cycle;Max_cycle;Signal;HPM_P1;HPM_P2
2024/03/07 00:00:15;;;;;;;83.90;41.27;;;;;;;;;;5072942;28;20865;-71
2024/03/07 00:02:42;;;;;;;93.07;43.47;;;;;;;;;;5072843;28;20447;-71
2024/03/07 00:05:09;;;;;;;93.37;42.23;;;;;;;;;;5072715;28;20543;-71
2024/03/07 00:07:36;;;;;;;91.57;41.13;;;;;;;;;;5072559;28;20530;-71
2024/03/07 00:10:06;;;;;;;97.80;41.47;;;;;;;;;;5072886;28;20445;-71
2024/03/07 00:12:33;;;;;;;102.43;43.83;;;;;;;;;;5073046;28;20450;-71
2024/03/07 00:15:00;;;;;;;97.53;43.63;;;;;;;;;;5072574;28;20471;-71
2024/03/07 00:17:27;;;;;;;98.93;45.63;;;;;;;;;;5072645;28;20558;-71
2024/03/07 00:19:54;;;;;;;95.50;43.73;;;;;;;;;;5072550;28;20534;-71
2024/03/07 00:22:22;;;;;;;94.87;43.40;;;;;;;;;;5075711;28;20550;-71
2024/03/07 00:24:49;;;;;;;93.83;41.70;;;;;;;;;;5076543;28;20530;-71
2024/03/07 00:27:17;;;;;;;81.17;41.07;;;;;;;;;;5076521;28;20499;-71
2024/03/07 00:29:52;;;;;;;84.37;42.17;;;;;;;;;;5076368;28;21030;-71
2024/03/07 00:32:19;;;;;;;84.13;40.83;;;;;;;;;;5076351;28;20447;-71
2024/03/07 00:34:46;;;;;;;88.93;41.87;;;;;;;;;;5076023;28;20908;-71
2024/03/07 00:37:13;;;;;;;95.60;42.40;;;;;;;;;;5076329;28;20451;-71
2024/03/07 00:39:40;;;;;;;91.90;41.23;;;;;;;;;;5076127;28;20471;-71
2024/03/07 00:42:07;;;;;;;86.27;40.73;;;;;;;;;;5076124;28;20443;-71
2024/03/07 00:44:36;;;;;;;96.53;41.37;;;;;;;;;;5076098;28;20534;-71
2024/03/07 00:47:04;;;;;;;89.73;41.87;;;;;;;;;;5075962;28;20446;-71
2024/03/07 00:49:31;;;;;;;80.00;39.33;;;;;;;;;;5075852;28;20548;-71
2024/03/07 00:51:58;;;;;;;90.00;43.00;;;;;;;;;;5075981;28;20507;-71
2024/03/07 00:54:25;;;;;;;105.50;44.10;;;;;;;;;;5075939;28;20538;-71
2024/03/07 00:56:52;;;;;;;81.37;40.07;;;;;;;;;;5075648;28;20998;-71
2024/03/07 00:59:18;;;;;;;82.70;42.73;;;;;;;;;;5075736;28;20447;-72
2024/03/07 01:01:47;;;;;;;95.17;42.47;;;;;;;;;;5075816;28;20998;-71
2024/03/07 01:04:14;;;;;;;87.30;38.30;;;;;;;;;;5075839;28;20479;-71
2024/03/07 01:06:41;;;;;;;95.73;41.33;;;;;;;;;;5075761;28;20462;-71
2024/03/07 01:09:13;;;;;;;86.20;41.77;;;;;;;;;;5075648;28;20447;-71
2024/03/07 01:11:40;;;;;;;90.57;43.93;;;;;;;;;;5075694;28;20444;-71
2024/03/07 01:14:07;;;;;;;93.60;42.93;;;;;;;;;;5075458;28;20536;-71
2024/03/07 01:16:34;;;;;;;77.77;39.00;;;;;;;;;;5075661;28;20784;-71
2024/03/07 01:19:05;;;;;;;89.73;41.40;;;;;;;;;;5075654;28;20443;-71
2024/03/07 01:21:32;;;;;;;83.43;38.43;;;;;;;;;;5075618;28;20451;-71
2024/03/07 01:24:00;;;;;;;81.47;39.13;;;;;;;;;;5075414;28;20538;-71
2024/03/07 01:26:27;;;;;;;95.90;39.77;;;;;;;;;;5075308;28;20788;-71
2024/03/07 01:28:54;;;;;;;96.50;41.73;;;;;;;;;;5075220;28;20539;-71
2024/03/07 01:31:21;;;;;;;81.10;40.50;;;;;;;;;;5075338;28;20821;-71
2024/03/07 01:33:48;;;;;;;83.00;41.47;;;;;;;;;;5074666;28;20447;-71
2024/03/07 01:36:17;;;;;;;85.13;39.55;;;;;;;;;;5074887;28;20479;-71
2024/03/07 01:38:43;;;;;;;85.95;40.33;;;;;;;;;;5074979;28;20672;-71
2024/03/07 01:41:10;;;;;;;83.10;40.28;;;;;;;;;;5075262;28;20189;-70
2024/03/07 01:43:37;;;;;;;90.22;40.97;;;;;;;;;;5074862;28;20276;-71
2024/03/07 01:46:05;;;;;;;75.45;36.83;;;;;;;;;;5074921;28;20236;-71
2024/03/07 01:48:33;;;;;;;76.22;39.40;;;;;;;;;;5075452;28;20193;-71
2024/03/07 01:51:00;;;;;;;91.43;40.83;;;;;;;;;;5075215;28;20280;-71
2024/03/07 01:53:29;;;;;;;89.63;38.67;;;;;;;;;;5074787;28;20449;-71
2024/03/07 01:55:56;;;;;;;96.37;41.80;;;;;;;;;;5074536;28;20564;-71
2024/03/07 01:58:23;;;;;;;96.75;39.92;;;;;;;;;;5074884;28;20506;-71
2024/03/07 02:00:50;;;;;;;79.25;38.88;;;;;;;;;;5074738;28;20653;-71
2024/03/07 02:03:17;;;;;;;90.73;40.37;;;;;;;;;;5074649;28;20185;-71
2024/03/07 02:05:44;;;;;;;100.72;41.80;;;;;;;;;;5074637;28;20443;-71
2024/03/07 02:08:12;;;;;;;91.78;41.63;;;;;;;;;;5074840;28;20221;-71
2024/03/07 02:10:40;;;;;;;76.17;40.57;;;;;;;;;;5074456;28;20660;-71
2024/03/07 02:13:07;;;;;;;87.60;38.90;;;;;;;;;;5074704;28;20472;-71
2024/03/07 02:15:34;;;;;;;89.03;39.63;;;;;;;;;;5074485;28;20479;-71
2024/03/07 02:18:01;;;;;;;68.30;36.53;;;;;;;;;;5074451;28;20542;-71
2024/03/07 02:20:28;;;;;;;75.70;37.70;;;;;;;;;;5074528;28;20530;-71
2024/03/07 02:22:57;;;;;;;76.63;38.13;;;;;;;;;;5074215;28;20936;-71
2024/03/07 02:25:23;;;;;;;82.10;37.33;;;;;;;;;;5074436;28;20288;-71
2024/03/07 02:27:50;;;;;;;90.80;38.80;;;;;;;;;;5074391;28;20505;-71
2024/03/07 02:30:18;;;;;;;78.33;37.17;;;;;;;;;;5074274;28;20530;-71
2024/03/07 02:32:51;;;;;;;83.18;37.00;;;;;;;;;;5074148;28;20446;-71
2024/03/07 02:35:18;;;;;;;74.22;34.80;;;;;;;;;;5074064;28;20200;-71
2024/03/07 02:37:45;;;;;;;77.65;36.67;;;;;;;;;;5074030;28;20213;-71
2024/03/07 02:40:14;;;;;;;87.40;35.87;;;;;;;;;;5073655;28;20224;-71
2024/03/07 02:42:41;;;;;;;66.53;35.35;;;;;;;;;;5073900;28;20455;-71
2024/03/07 02:45:10;;;;;;;81.03;37.30;;;;;;;;;;5072871;28;20185;-71
2024/03/07 02:47:38;;;;;;;72.27;36.47;;;;;;;;;;5073764;28;20443;-71
2024/03/07 02:50:07;;;;;;;66.28;35.08;;;;;;;;;;5073636;28;20439;-71
2024/03/07 02:52:34;;;;;;;79.22;35.58;;;;;;;;;;5073841;28;20190;-71
2024/03/07 02:55:03;;;;;;;71.65;35.13;;;;;;;;;;5073712;28;20189;-71
2024/03/07 02:57:31;;;;;;;74.43;35.07;;;;;;;;;;5073548;28;20212;-71
2024/03/07 02:59:58;;;;;;;64.10;32.83;;;;;;;;;;5073506;28;20535;-71
2024/03/07 03:02:25;;;;;;;64.85;32.47;;;;;;;;;;5073476;28;20624;-71
2024/03/07 03:04:52;;;;;;;74.93;34.05;;;;;;;;;;5073418;28;20189;-71
2024/03/07 03:07:19;;;;;;;61.05;34.00;;;;;;;;;;5073353;28;20283;-71
2024/03/07 03:09:46;;;;;;;62.38;32.90;;;;;;;;;;5073535;28;20364;-71
2024/03/07 03:12:13;;;;;;;60.65;33.10;;;;;;;;;;5073483;28;20250;-71
2024/03/07 03:14:42;;;;;;;58.10;33.00;;;;;;;;;;5073342;28;20280;-71
2024/03/07 03:17:09;;;;;;;56.22;32.38;;;;;;;;;;5073145;28;20316;-71
2024/03/07 03:19:37;;;;;;;53.85;30.85;;;;;;;;;;5073604;28;20546;-71
2024/03/07 03:22:04;;;;;;;66.70;32.67;;;;;;;;;;5073329;28;20238;-70
2024/03/07 03:24:31;;;;;;;57.55;32.88;;;;;;;;;;5073300;28;20502;-72
2024/03/07 03:26:58;;;;;;;53.40;32.25;;;;;;;;;;5073266;28;20193;-71
2024/03/07 03:29:28;;;;;;;58.03;32.17;;;;;;;;;;5073077;28;20277;-71
2024/03/07 03:31:56;;;;;;;53.10;30.70;;;;;;;;;;5073110;28;20193;-71
2024/03/07 03:34:24;;;;;;;54.30;29.27;;;;;;;;;;5073030;28;20275;-71
2024/03/07 03:36:51;;;;;;;62.63;31.47;;;;;;;;;;5073042;28;20304;-71
2024/03/07 03:39:20;;;;;;;52.67;29.00;;;;;;;;;;5072909;28;20560;-71
2024/03/07 03:41:47;;;;;;;44.53;28.17;;;;;;;;;;5072893;28;20254;-71
2024/03/07 03:44:14;;;;;;;51.50;32.15;;;;;;;;;;5072782;28;20193;-71
2024/03/07 03:46:41;;;;;;;52.47;31.42;;;;;;;;;;5072972;28;20200;-71
2024/03/07 03:49:10;;;;;;;47.42;30.20;;;;;;;;;;5073020;28;20185;-72
2024/03/07 03:51:37;;;;;;;48.92;30.42;;;;;;;;;;5072915;28;20192;-71
2024/03/07 03:54:03;;;;;;;52.38;29.88;;;;;;;;;;5072745;28;20189;-71
2024/03/07 03:56:31;;;;;;;44.63;28.13;;;;;;;;;;5074690;28;20216;-71
2024/03/07 03:58:58;;;;;;;50.58;30.70;;;;;;;;;;5076883;28;20450;-71
2024/03/07 04:01:25;;;;;;;55.40;30.10;;;;;;;;;;5077119;28;20224;-71
2024/03/07 04:03:52;;;;;;;58.47;31.23;;;;;;;;;;5076935;28;20280;-71
2024/03/07 04:06:21;;;;;;;46.88;29.95;;;;;;;;;;5076894;28;20656;-71
2024/03/07 04:08:48;;;;;;;46.08;28.75;;;;;;;;;;5076810;28;20192;-71
2024/03/07 04:11:15;;;;;;;45.17;27.30;;;;;;;;;;5076629;28;20220;-70
2024/03/07 04:13:42;;;;;;;48.72;28.38;;;;;;;;;;5077063;28;20311;-71
2024/03/07 04:16:09;;;;;;;47.22;29.35;;;;;;;;;;5076653;28;20278;-71
2024/03/07 04:18:36;;;;;;;47.22;30.63;;;;;;;;;;5076717;28;20200;-71
2024/03/07 04:21:03;;;;;;;51.10;29.73;;;;;;;;;;5076594;28;20185;-71
2024/03/07 04:23:32;;;;;;;47.80;28.73;;;;;;;;;;5076515;28;20284;-71
2024/03/07 04:25:59;;;;;;;48.25;27.70;;;;;;;;;;5076305;28;20193;-71
2024/03/07 04:28:27;;;;;;;49.30;29.42;;;;;;;;;;5076595;28;20221;-70
2024/03/07 04:30:54;;;;;;;48.28;29.83;;;;;;;;;;5076627;28;20288;-70
2024/03/07 04:33:21;;;;;;;44.85;28.50;;;;;;;;;;5076315;28;20641;-71
2024/03/07 04:35:48;;;;;;;47.80;30.10;;;;;;;;;;5076116;28;20228;-71
2024/03/07 04:38:15;;;;;;;49.60;29.27;;;;;;;;;;5076086;28;20276;-71
2024/03/07 04:40:44;;;;;;;44.13;28.15;;;;;;;;;;5075949;28;20647;-71
2024/03/07 04:43:11;;;;;;;49.25;30.25;;;;;;;;;;5076215;28;20190;-71
2024/03/07 04:45:38;;;;;;;54.33;29.73;;;;;;;;;;5076093;28;20189;-71
2024/03/07 04:48:05;;;;;;;47.53;28.73;;;;;;;;;;5076103;28;20229;-71
2024/03/07 04:50:33;;;;;;;43.88;27.63;;;;;;;;;;5075936;28;20212;-71
2024/03/07 04:52:59;;;;;;;42.70;27.00;;;;;;;;;;5075764;28;20197;-71
2024/03/07 04:55:26;;;;;;;46.72;27.90;;;;;;;;;;5075960;28;20204;-71
2024/03/07 04:57:55;;;;;;;51.45;28.15;;;;;;;;;;5075899;28;20312;-71
2024/03/07 05:00:23;;;;;;;47.90;27.30;;;;;;;;;;5075884;28;20692;-71
2024/03/07 05:02:50;;;;;;;44.28;27.45;;;;;;;;;;5075727;28;20254;-71
2024/03/07 05:05:21;;;;;;;46.55;28.20;;;;;;;;;;5075809;28;20645;-71
2024/03/07 05:07:49;;;;;;;40.20;25.73;;;;;;;;;;5074505;28;20270;-71
2024/03/07 05:10:16;;;;;;;44.30;28.05;;;;;;;;;;5075725;28;20193;-71
2024/03/07 05:12:43;;;;;;;44.38;26.80;;;;;;;;;;5075751;28;20652;-71
2024/03/07 05:15:11;;;;;;;44.67;26.08;;;;;;;;;;5075541;28;20280;-71
2024/03/07 05:17:40;;;;;;;42.13;24.73;;;;;;;;;;5075529;28;20213;-71
2024/03/07 05:20:09;;;;;;;42.92;26.15;;;;;;;;;;5075281;28;20193;-71
2024/03/07 05:22:38;;;;;;;42.75;25.27;;;;;;;;;;5075632;28;20197;-71
2024/03/07 05:25:06;;;;;;;47.92;27.45;;;;;;;;;;5075390;28;20193;-71
2024/03/07 05:27:33;;;;;;;41.72;25.80;;;;;;;;;;5075405;28;20236;-71
2024/03/07 05:30:00;;;;;;;46.30;25.17;;;;;;;;;;5075305;28;20231;-71
2024/03/07 05:32:28;;;;;;;40.72;25.48;;;;;;;;;;5075107;28;20193;-71
2024/03/07 05:34:55;;;;;;;42.13;25.92;;;;;;;;;;5075620;28;20284;-71
2024/03/07 05:37:23;;;;;;;38.75;23.73;;;;;;;;;;5075202;28;20648;-71
2024/03/07 05:39:50;;;;;;;39.83;22.67;;;;;;;;;;5075094;28;20217;-71
2024/03/07 05:42:17;;;;;;;35.38;23.80;;;;;;;;;;5075032;28;20224;-71
2024/03/07 05:44:44;;;;;;;34.35;23.23;;;;;;;;;;5074991;28;20189;-71
2024/03/07 05:47:13;;;;;;;34.20;23.30;;;;;;;;;;5074689;28;20197;-70
2024/03/07 05:49:41;;;;;;;39.05;24.98;;;;;;;;;;5074826;28;20192;-71
2024/03/07 05:52:08;;;;;;;37.83;24.67;;;;;;;;;;5074935;28;20199;-71
2024/03/07 05:54:34;;;;;;;36.35;25.25;;;;;;;;;;5074746;28;20189;-71
2024/03/07 05:57:01;;;;;;;42.20;24.98;;;;;;;;;;5074641;28;20224;-71
2024/03/07 05:59:30;;;;;;;48.42;24.40;;;;;;;;;;5074601;28;20280;-71
2024/03/07 06:01:57;;;;;;;41.83;24.80;;;;;;;;;;5074993;28;20240;-71
2024/03/07 06:04:24;;;;;;;38.10;24.08;;;;;;;;;;5074558;28;20189;-71
2024/03/07 06:06:53;;;;;;;39.55;22.73;;;;;;;;;;5074420;28;20197;-70
2024/03/07 06:09:21;;;;;;;36.10;25.00;;;;;;;;;;5074476;28;20243;-71
2024/03/07 06:11:48;;;;;;;42.85;24.20;;;;;;;;;;5074378;28;20193;-71
2024/03/07 06:14:17;;;;;;;40.25;25.88;;;;;;;;;;5074276;28;20193;-71
2024/03/07 06:16:44;;;;;;;40.58;24.40;;;;;;;;;;5074236;28;20209;-71
2024/03/07 06:19:11;;;;;;;39.72;24.73;;;;;;;;;;5073932;28;20239;-71
2024/03/07 06:21:39;;;;;;;33.45;22.23;;;;;;;;;;5074195;28;20189;-71
2024/03/07 06:24:08;;;;;;;35.03;21.40;;;;;;;;;;5074221;28;20247;-71
2024/03/07 06:26:45;;;;;;;36.20;25.25;;;;;;;;;;5074040;28;20193;-71
2024/03/07 06:29:13;;;;;;;35.30;23.20;;;;;;;;;;5074298;28;20238;-71
2024/03/07 06:31:40;;;;;;;34.47;23.25;;;;;;;;;;5074177;28;20273;-71
2024/03/07 06:34:08;;;;;;;37.77;23.40;;;;;;;;;;5073948;28;20275;-71
2024/03/07 06:36:35;;;;;;;56.45;28.23;;;;;;;;;;5073553;28;20913;-71
2024/03/07 06:39:02;;;;;;;38.08;23.13;;;;;;;;;;5073640;28;20263;-70
2024/03/07 06:41:31;;;;;;;33.67;21.90;;;;;;;;;;5073680;28;20289;-71
2024/03/07 06:43:58;;;;;;;31.45;20.92;;;;;;;;;;5073878;28;20250;-71
2024/03/07 06:46:25;;;;;;;31.42;22.45;;;;;;;;;;5073632;28;20552;-71
2024/03/07 06:48:52;;;;;;;32.10;22.88;;;;;;;;;;5073629;28;20197;-71
2024/03/07 06:51:19;;;;;;;31.67;21.30;;;;;;;;;;5073553;28;20284;-71
2024/03/07 06:53:46;;;;;;;35.85;22.15;;;;;;;;;;5073483;28;20186;-70
2024/03/07 06:56:13;;;;;;;35.38;22.15;;;;;;;;;;5073444;28;20193;-71
2024/03/07 06:58:42;;;;;;;36.78;21.38;;;;;;;;;;5073008;28;20630;-70
2024/03/07 07:01:10;;;;;;;35.72;21.42;;;;;;;;;;5073595;28;20235;-71
2024/03/07 07:03:37;;;;;;;31.38;20.70;;;;;;;;;;5073418;28;20185;-71
2024/03/07 07:06:05;;;;;;;28.23;21.27;;;;;;;;;;5073415;28;20217;-70
2024/03/07 07:08:32;;;;;;;34.60;19.55;;;;;;;;;;5073046;28;20236;-71
2024/03/07 07:10:59;;;;;;;29.35;19.90;;;;;;;;;;5073342;28;20712;-71
2024/03/07 07:13:26;;;;;;;24.73;18.42;;;;;;;;;;5073348;28;20196;-71
2024/03/07 07:15:55;;;;;;;26.17;17.02;;;;;;;;;;5073139;28;20666;-71
2024/03/07 07:18:23;;;;;;;27.08;17.77;;;;;;;;;;5072995;28;20320;-71
2024/03/07 07:20:51;;;;;;;22.83;18.23;;;;;;;;;;5073017;28;20613;-70
2024/03/07 07:23:18;;;;;;;24.73;17.02;;;;;;;;;;5073366;28;20247;-71
2024/03/07 07:25:46;;;;;;;24.77;17.35;;;;;;;;;;5073149;28;20216;-71
2024/03/07 07:28:13;;;;;;;19.80;15.13;;;;;;;;;;5073240;28;20185;-71
2024/03/07 07:30:40;;;;;;;26.20;18.42;;;;;;;;;;5072531;28;20197;-71
2024/03/07 07:33:08;;;;;;;23.13;16.30;;;;;;;;;;5072909;28;20281;-71
2024/03/07 07:35:35;;;;;;;26.52;17.23;;;;;;;;;;5072790;28;20279;-70
2024/03/07 07:38:02;;;;;;;27.13;16.58;;;;;;;;;;5072659;28;20700;-70
2024/03/07 07:40:31;;;;;;;23.65;16.38;;;;;;;;;;5072820;28;20253;-70
2024/03/07 07:42:58;;;;;;;24.23;15.43;;;;;;;;;;5072905;28;20189;-70
2024/03/07 07:45:25;;;;;;;20.65;15.77;;;;;;;;;;5072882;28;20189;-70
2024/03/07 07:47:52;;;;;;;22.65;15.60;;;;;;;;;;5072828;28;20201;-70
2024/03/07 07:50:21;;;;;;;24.25;15.80;;;;;;;;;;5072599;28;20617;-70
2024/03/07 07:52:49;;;;;;;21.77;14.25;;;;;;;;;;5072998;28;20186;-70
2024/03/07 07:55:17;;;;;;;24.08;15.10;;;;;;;;;;5072934;28;20224;-70
2024/03/07 07:57:44;;;;;;;25.70;17.30;;;;;;;;;;5072772;28;20274;-70
2024/03/07 08:00:21;;;;;;;19.80;15.55;;;;;;;;;;5072598;28;20185;-70
2024/03/07 08:02:48;;;;;;;19.10;14.05;;;;;;;;;;5072646;28;20185;-70
2024/03/07 08:05:17;;;;;;;20.58;14.45;;;;;;;;;;5072825;28;20221;-70
2024/03/07 08:07:46;;;;;;;20.52;15.48;;;;;;;;;;5072567;28;20220;-70
2024/03/07 08:10:13;;;;;;;22.27;15.45;;;;;;;;;;5072368;28;20649;-70
2024/03/07 08:12:43;;;;;;;24.30;16.25;;;;;;;;;;5072396;28;20284;-73
2024/03/07 08:15:13;;;;;;;24.27;14.50;;;;;;;;;;5072664;28;20196;-72
2024/03/07 08:17:40;;;;;;;21.05;15.13;;;;;;;;;;5072688;28;20216;-72
2024/03/07 08:20:11;;;;;;;21.23;14.00;;;;;;;;;;5072228;28;20272;-65
2024/03/07 08:22:38;;;;;;;20.48;14.02;;;;;;;;;;5072355;28;20229;-72
2024/03/07 08:25:09;;;;;;;20.13;14.38;;;;;;;;;;5072375;28;20196;-68
2024/03/07 08:27:36;;;;;;;20.45;14.07;;;;;;;;;;5072234;28;20229;-68
2024/03/07 08:30:03;;;;;;;21.52;14.88;;;;;;;;;;5072393;28;20193;-70
2024/03/07 08:32:30;;;;;;;22.00;14.30;;;;;;;;;;5072334;28;20189;-71
2024/03/07 08:34:57;;;;;;;20.17;14.90;;;;;;;;;;5072448;28;20284;-64
2024/03/07 08:37:24;;;;;;;17.75;13.95;;;;;;;;;;5072308;28;20579;-65
2024/03/07 08:39:52;;;;;;;16.83;14.05;;;;;;;;;;5072036;28;20223;-68
2024/03/07 08:42:20;;;;;;;16.00;13.13;;;;;;;;;;5073377;28;20197;-66
2024/03/07 08:44:47;;;;;;;20.38;13.82;;;;;;;;;;5076100;28;20190;-66
2024/03/07 08:47:14;;;;;;;19.80;13.30;;;;;;;;;;5075624;28;20735;-66
2024/03/07 08:49:41;;;;;;;22.88;15.10;;;;;;;;;;5075821;28;20284;-64
2024/03/07 08:52:08;;;;;;;19.45;13.65;;;;;;;;;;5075834;28;20189;-70
2024/03/07 08:54:35;;;;;;;17.83;12.98;;;;;;;;;;5075667;28;20284;-66
2024/03/07 08:57:02;;;;;;;18.75;13.48;;;;;;;;;;5076107;28;20296;-68
2024/03/07 08:59:30;;;;;;;17.63;13.00;;;;;;;;;;5075966;28;20191;-65
2024/03/07 09:01:59;;;;;;;13.50;11.13;;;;;;;;;;5075774;28;20280;-64
2024/03/07 09:04:26;;;;;;;17.97;13.10;;;;;;;;;;5075615;28;20189;-67
2024/03/07 09:06:53;;;;;;;15.48;11.95;;;;;;;;;;5075597;28;20867;-66
2024/03/07 09:09:20;;;;;;;14.77;12.38;;;;;;;;;;5075218;28;20280;-66
2024/03/07 09:11:47;;;;;;;12.98;10.75;;;;;;;;;;5075633;28;20558;-63
2024/03/07 09:14:14;;;;;;;17.38;12.88;;;;;;;;;;5075439;28;20195;-64
2024/03/07 09:16:43;;;;;;;12.10;10.13;;;;;;;;;;5075363;28;20275;-67
2024/03/07 09:19:13;;;;;;;14.88;10.25;;;;;;;;;;5075271;28;20910;-66
2024/03/07 09:21:41;;;;;;;14.00;10.50;;;;;;;;;;5075268;28;20246;-66
2024/03/07 09:24:08;;;;;;;14.90;10.27;;;;;;;;;;5075445;28;20444;-72
2024/03/07 09:26:35;;;;;;;14.73;10.80;;;;;;;;;;5075241;28;20530;-67
2024/03/07 09:29:05;;;;;;;14.93;10.30;;;;;;;;;;5075306;28;20228;-68
2024/03/07 09:31:32;;;;;;;13.67;10.80;;;;;;;;;;5075306;28;20407;-72
2024/03/07 09:34:02;;;;;;;13.67;10.50;;;;;;;;;;5075028;28;20645;-72
2024/03/07 09:36:29;;;;;;;14.87;10.47;;;;;;;;;;5075072;28;20453;-68
2024/03/07 09:38:56;;;;;;;13.97;10.93;;;;;;;;;;5074836;28;20483;-68
2024/03/07 09:41:25;;;;;;;17.95;11.45;;;;;;;;;;5075215;28;20530;-68
2024/03/07 09:43:54;;;;;;;13.68;10.02;;;;;;;;;;5074636;28;20189;-67
2024/03/07 09:46:23;;;;;;;16.70;10.07;;;;;;;;;;5074949;28;20197;-67
2024/03/07 09:48:52;;;;;;;13.33;11.10;;;;;;;;;;5074859;28;20196;-68
2024/03/07 09:51:21;;;;;;;15.63;10.67;;;;;;;;;;5074863;28;20447;-67
2024/03/07 09:53:50;;;;;;;12.30;10.67;;;;;;;;;;5074339;28;20513;-67
2024/03/07 09:56:18;;;;;;;12.73;11.03;;;;;;;;;;5074761;28;20450;-67
2024/03/07 09:58:47;;;;;;;15.53;11.27;;;;;;;;;;5074524;28;20569;-67
2024/03/07 10:01:15;;;;;;;12.70;9.90;;;;;;;;;;5074425;28;20517;-68
2024/03/07 10:03:45;;;;;;;12.67;9.87;;;;;;;;;;5074550;28;20444;-69
2024/03/07 10:06:13;;;;;;;10.27;8.80;;;;;;;;;;5074687;28;20444;-65
2024/03/07 10:08:42;;;;;;;13.23;10.07;;;;;;;;;;5074500;28;20825;-66
2024/03/07 10:11:09;;;;;;;12.57;8.87;;;;;;;;;;5074454;28;20447;-69
2024/03/07 10:13:36;;;;;;;13.93;9.83;;;;;;;;;;5074367;28;20486;-69
2024/03/07 10:16:04;;;;;;;13.43;10.30;;;;;;;;;;5073945;28;20986;-63
2024/03/07 10:18:31;;;;;;;14.00;10.33;;;;;;;;;;5074289;28;20584;-66
2024/03/07 10:20:59;;;;;;;11.20;8.43;;;;;;;;;;5074324;28;20874;-72
2024/03/07 10:23:26;;;;;;;13.50;9.87;;;;;;;;;;5074236;28;20490;-72
2024/03/07 10:25:55;;;;;;;12.13;9.90;;;;;;;;;;5074076;28;20896;-69
2024/03/07 10:28:22;;;;;;;9.20;8.30;;;;;;;;;;5073853;28;20452;-70
2024/03/07 10:30:50;;;;;;;9.40;8.50;;;;;;;;;;5074131;28;20531;-68
2024/03/07 10:33:17;;;;;;;13.83;10.03;;;;;;;;;;5074101;28;20450;-69
2024/03/07 10:35:44;;;;;;;12.33;9.70;;;;;;;;;;5073927;28;20508;-69
2024/03/07 10:38:11;;;;;;;12.40;9.67;;;;;;;;;;5073943;28;20481;-69
2024/03/07 10:40:40;;;;;;;13.93;10.07;;;;;;;;;;5074139;28;21036;-70
2024/03/07 10:43:10;;;;;;;12.33;10.43;;;;;;;;;;5073605;28;20978;-72
2024/03/07 10:45:41;;;;;;;12.00;9.43;;;;;;;;;;5073934;28;20444;-69
2024/03/07 10:48:10;;;;;;;13.60;11.33;;;;;;;;;;5073639;28;20539;-66
2024/03/07 10:50:43;;;;;;;11.27;10.00;;;;;;;;;;5073520;28;20528;-65
2024/03/07 10:53:14;;;;;;;14.80;11.63;;;;;;;;;;5073408;28;20604;-65
2024/03/07 10:55:45;;;;;;;14.67;11.00;;;;;;;;;;5073392;28;20530;-68
2024/03/07 10:58:17;;;;;;;11.27;9.20;;;;;;;;;;5073469;28;20562;-66
2024/03/07 11:00:45;;;;;;;10.83;9.70;;;;;;;;;;5073270;28;20972;-70
2024/03/07 11:03:13;;;;;;;15.53;11.30;;;;;;;;;;5073268;28;20454;-67
2024/03/07 11:05:43;;;;;;;12.17;10.50;;;;;;;;;;5072395;28;20455;-70
2024/03/07 11:08:11;;;;;;;17.10;12.40;;;;;;;;;;5073522;28;20845;-69
2024/03/07 11:10:39;;;;;;;14.03;11.23;;;;;;;;;;5073242;28;20451;-69
2024/03/07 11:13:09;;;;;;;15.97;11.50;;;;;;;;;;5073192;28;20531;-68
2024/03/07 11:15:37;;;;;;;14.87;12.00;;;;;;;;;;5073205;28;20447;-67
2024/03/07 11:18:05;;;;;;;15.33;11.73;;;;;;;;;;5072945;28;20530;-67
2024/03/07 11:20:36;;;;;;;13.57;11.83;;;;;;;;;;5073126;28;20935;-68
2024/03/07 11:23:23;;;;;;;15.60;12.20;;;;;;;;;;5073021;28;21049;-68
2024/03/07 11:25:50;;;;;;;16.13;12.03;;;;;;;;;;5072782;28;20876;-68
2024/03/07 11:28:20;;;;;;;12.87;10.53;;;;;;;;;;5072942;28;20542;-72
2024/03/07 11:30:48;;;;;;;12.63;11.30;;;;;;;;;;5073015;28;20443;-66
2024/03/07 11:33:17;;;;;;;15.40;11.23;;;;;;;;;;5073043;28;20558;-64
2024/03/07 11:35:49;;;;;;;15.90;11.23;;;;;;;;;;5073147;28;20470;-67
2024/03/07 11:38:16;;;;;;;14.30;11.10;;;;;;;;;;5072917;28;20471;-73
2024/03/07 11:40:48;;;;;;;14.30;11.23;;;;;;;;;;5072647;28;20473;-68
2024/03/07 11:43:15;;;;;;;12.60;11.00;;;;;;;;;;5072721;28;20500;-68
2024/03/07 11:45:45;;;;;;;14.73;11.63;;;;;;;;;;5072662;28;20501;-69
2024/03/07 11:48:15;;;;;;;13.87;11.80;;;;;;;;;;5073015;28;20447;-67
2024/03/07 11:50:42;;;;;;;15.47;11.60;;;;;;;;;;5072956;28;20961;-68
2024/03/07 11:53:10;;;;;;;15.32;13.27;;;;;;;;;;5071825;28;20995;-68
2024/03/07 11:55:44;;;;;;;13.60;11.87;;;;;;;;;;5072678;28;20189;-64
2024/03/07 11:58:13;;;;;;;14.33;12.27;;;;;;;;;;5072537;28;20506;-69
2024/03/07 12:00:42;;;;;;;15.93;12.47;;;;;;;;;;5072785;28;20451;-68
2024/03/07 12:03:13;;;;;;;15.53;12.40;;;;;;;;;;5072584;28;20452;-67
2024/03/07 12:05:41;;;;;;;13.60;11.27;;;;;;;;;;5072595;28;20451;-67
2024/03/07 12:08:10;;;;;;;15.10;12.53;;;;;;;;;;5072310;28;20918;-68
2024/03/07 12:10:38;;;;;;;17.90;11.87;;;;;;;;;;5072423;28;20554;-64
2024/03/07 12:13:05;;;;;;;16.27;12.97;;;;;;;;;;5072714;28;20443;-71
2024/03/07 12:15:33;;;;;;;17.47;12.47;;;;;;;;;;5072621;28;20501;-66
2024/03/07 12:18:01;;;;;;;16.23;11.90;;;;;;;;;;5075382;28;20447;-68
2024/03/07 12:20:33;;;;;;;15.23;11.37;;;;;;;;;;5076365;28;20842;-66
2024/03/07 12:23:02;;;;;;;16.20;11.63;;;;;;;;;;5076343;28;20525;-72
2024/03/07 12:25:30;;;;;;;14.80;11.70;;;;;;;;;;5076536;28;20439;-69
2024/03/07 12:28:02;;;;;;;13.93;11.80;;;;;;;;;;5076320;28;20469;-73
2024/03/07 12:30:32;;;;;;;15.60;12.27;;;;;;;;;;5076362;28;20454;-69
2024/03/07 12:32:59;;;;;;;14.60;11.47;;;;;;;;;;5076306;28;20930;-70
2024/03/07 12:35:26;;;;;;;17.47;12.87;;;;;;;;;;5076002;28;20526;-70
2024/03/07 12:37:56;;;;;;;15.17;12.43;;;;;;;;;;5076037;28;20458;-70
2024/03/07 12:40:24;;;;;;;12.67;11.37;;;;;;;;;;5075867;28;20493;-69
2024/03/07 12:42:55;;;;;;;18.00;13.20;;;;;;;;;;5074712;28;20508;-70
2024/03/07 12:45:23;;;;;;;21.13;13.70;;;;;;;;;;5074117;28;20504;-70
2024/03/07 12:47:51;;;;;;;15.80;11.80;;;;;;;;;;5073852;28;20875;-69
2024/03/07 12:50:20;;;;;;;14.97;12.47;;;;;;;;;;5074044;28;20451;-69
2024/03/07 12:52:49;;;;;;;14.00;11.73;;;;;;;;;;5074234;28;20442;-69
2024/03/07 12:55:19;;;;;;;14.03;11.13;;;;;;;;;;5074004;28;20437;-69
2024/03/07 12:57:50;;;;;;;15.00;11.97;;;;;;;;;;5075022;28;20857;-69
2024/03/07 13:00:20;;;;;;;14.13;11.57;;;;;;;;;;5075630;28;20808;-69
2024/03/07 13:02:48;;;;;;;13.17;11.00;;;;;;;;;;5075860;28;20919;-69
2024/03/07 13:05:18;;;;;;;17.50;12.77;;;;;;;;;;5075777;28;20486;-69
2024/03/07 13:07:47;;;;;;;15.67;13.10;;;;;;;;;;5075659;28;20536;-69
2024/03/07 13:10:15;;;;;;;16.70;13.70;;;;;;;;;;5075745;28;20522;-69
2024/03/07 13:12:45;;;;;;;16.57;13.90;;;;;;;;;;5075497;28;20454;-69
2024/03/07 13:15:13;;;;;;;15.30;13.00;;;;;;;;;;5075497;28;20443;-69
2024/03/07 13:17:41;;;;;;;13.37;11.93;;;;;;;;;;5075348;28;20443;-69
2024/03/07 13:20:12;;;;;;;15.17;12.50;;;;;;;;;;5075181;28;20510;-69
2024/03/07 13:22:42;;;;;;;17.07;12.33;;;;;;;;;;5075324;28;20447;-70
2024/03/07 13:25:13;;;;;;;15.00;13.40;;;;;;;;;;5075332;28;20522;-70
2024/03/07 13:27:41;;;;;;;14.97;12.90;;;;;;;;;;5075048;28;20533;-70
2024/03/07 13:30:09;;;;;;;14.60;12.70;;;;;;;;;;5074500;28;20440;-69
2024/03/07 13:32:37;;;;;;;14.87;12.07;;;;;;;;;;5075319;28;20453;-69
2024/03/07 13:35:04;;;;;;;17.50;12.20;;;;;;;;;;5075151;28;20448;-69
2024/03/07 13:37:34;;;;;;;15.93;12.70;;;;;;;;;;5074927;28;20526;-70
2024/03/07 13:40:22;;;;;;;17.60;13.83;;;;;;;;;;5074741;28;20568;-69
2024/03/07 13:42:48;;;;;;;18.93;13.30;;;;;;;;;;5074657;28;20439;-69
2024/03/07 13:45:15;;;;;;;16.93;12.40;;;;;;;;;;5074944;28;20960;-71
2024/03/07 13:47:44;;;;;;;17.57;14.53;;;;;;;;;;5074793;28;20527;-69
2024/03/07 13:50:11;;;;;;;19.40;13.50;;;;;;;;;;5074799;28;20857;-70
2024/03/07 13:52:43;;;;;;;17.10;13.80;;;;;;;;;;5074589;28;20842;-69
2024/03/07 13:55:11;;;;;;;16.07;13.70;;;;;;;;;;5074942;28;20538;-70
2024/03/07 13:57:43;;;;;;;15.50;13.90;;;;;;;;;;5074777;28;20443;-69
2024/03/07 14:00:20;;;;;;;16.43;13.13;;;;;;;;;;5074692;28;21002;-69
2024/03/07 14:03:00;;;;;;;15.70;12.40;;;;;;;;;;5074583;28;20783;-69
2024/03/07 14:05:46;;;;;;;27.13;13.27;;;;;;;;;;5074401;28;20939;-69
2024/03/07 14:08:24;;;;;;;15.97;12.53;;;;;;;;;;5074503;28;20876;-70
2024/03/07 14:11:15;;;;;;;16.90;12.40;;;;;;;;;;5074486;28;20792;-69
2024/03/07 14:13:47;;;;;;;17.17;13.40;;;;;;;;;;5074594;28;20796;-70
2024/03/07 14:16:23;;;;;;;17.47;12.47;;;;;;;;;;5074381;28;20538;-69
2024/03/07 14:19:14;;;;;;;18.10;14.10;;;;;;;;;;5074161;28;20484;-70
2024/03/07 14:22:04;;;;;;;19.30;14.13;;;;;;;;;;5074171;28;20443;-69
2024/03/07 14:24:39;;;;;;;16.03;12.90;;;;;;;;;;5071570;28;20455;-69